Time;durP1;ratioP1;P1;durP2;ratioP2;P2;SDS_P1;SDS_P2;PMS_P1;PMS_P2;Temp;Humidity;BMP_temperature;BMP_pressure;BME280_temperature;BME280_humidity;BME280_pressure;Samples;Min_cycle;Max_cycle;Signal;HPM_P1;HPM_P2
2022/10/05 00:02:17;;;;;;;7.78;3.63;;;17.70;91.70;;;;;;5017408;28;20037;-74
2022/10/05 00:04:43;;;;;;;7.10;4.45;;;17.70;91.70;;;;;;5037633;28;20040;-75
2022/10/05 00:07:14;;;;;;;6.80;4.00;;;17.60;91.80;;;;;;5027179;28;20440;-75
2022/10/05 00:09:40;;;;;;;7.57;4.18;;;17.60;91.80;;;;;;5014446;28;20022;-75
2022/10/05 00:12:27;;;;;;;8.15;4.03;;;17.60;91.80;;;;;;5013677;28;20030;-75
2022/10/05 00:14:58;;;;;;;6.43;4.22;;;17.60;91.80;;;;;;5013585;28;20036;-75
2022/10/05 00:17:26;;;;;;;7.38;4.30;;;17.70;91.80;;;;;;5013837;28;20033;-74
2022/10/05 00:19:52;;;;;;;10.43;4.53;;;17.60;91.90;;;;;;5013733;28;20032;-75
2022/10/05 00:22:32;;;;;;;6.38;3.72;;;17.60;91.80;;;;;;5013663;28;20502;-75
2022/10/05 00:25:00;;;;;;;7.72;4.63;;;17.60;91.90;;;;;;5013598;28;20038;-75
2022/10/05 00:27:33;;;;;;;8.82;4.15;;;17.60;91.90;;;;;;5013350;28;20048;-75
2022/10/05 00:30:06;;;;;;;7.35;4.47;;;17.50;92.00;;;;;;5013635;28;20035;-75
2022/10/05 00:32:32;;;;;;;6.10;3.90;;;17.60;91.90;;;;;;5013512;28;20439;-74
2022/10/05 00:34:58;;;;;;;5.82;3.95;;;17.50;92.00;;;;;;5013761;28;20037;-74
2022/10/05 00:37:26;;;;;;;9.43;4.40;;;17.60;92.00;;;;;;5013484;28;20044;-74
2022/10/05 00:39:52;;;;;;;8.48;4.57;;;17.50;92.10;;;;;;5013831;28;20021;-74
2022/10/05 00:42:35;;;;;;;9.80;4.68;;;17.50;92.20;;;;;;5013407;28;20050;-74
2022/10/05 00:45:09;;;;;;;6.45;4.72;;;17.50;92.20;;;;;;5013603;28;20037;-74
2022/10/05 00:47:44;;;;;;;7.18;4.22;;;17.50;92.20;;;;;;5013458;28;20402;-74
2022/10/05 00:50:36;;;;;;;5.65;4.60;;;17.60;92.20;;;;;;5013622;28;20033;-75
2022/10/05 00:53:22;;;;;;;7.22;4.13;;;17.50;92.20;;;;;;5013448;28;20499;-75
2022/10/05 00:56:07;;;;;;;6.70;4.18;;;17.50;92.30;;;;;;5015799;28;20436;-74
2022/10/05 00:58:41;;;;;;;6.97;4.35;;;17.40;92.30;;;;;;5017948;28;20036;-74
2022/10/05 01:01:11;;;;;;;8.85;4.75;;;17.40;92.30;;;;;;5029878;28;20549;-73
2022/10/05 01:03:58;;;;;;;7.10;4.88;;;17.40;92.40;;;;;;5017623;28;20030;-74
2022/10/05 01:06:54;;;;;;;5.97;4.22;;;17.40;92.40;;;;;;5017137;28;20018;-74
2022/10/05 01:09:55;;;;;;;7.28;4.60;;;17.40;92.50;;;;;;5017043;28;20030;-74
2022/10/05 01:12:29;;;;;;;5.90;4.20;;;17.40;92.50;;;;;;5019785;28;20050;-74
2022/10/05 01:15:01;;;;;;;9.73;4.75;;;17.50;92.60;;;;;;5016958;28;20378;-75
2022/10/05 01:17:38;;;;;;;7.95;4.35;;;17.40;92.50;;;;;;5017063;28;20113;-74
2022/10/05 01:20:32;;;;;;;8.32;4.30;;;17.50;92.70;;;;;;5017058;28;20030;-74
2022/10/05 01:23:13;;;;;;;7.00;4.35;;;17.40;92.70;;;;;;5016929;28;20383;-74
2022/10/05 01:26:15;;;;;;;7.22;4.20;;;17.50;92.70;;;;;;5016721;28;20077;-74
2022/10/05 01:28:46;;;;;;;7.32;4.18;;;17.50;92.80;;;;;;5016759;28;20053;-74
2022/10/05 01:31:39;;;;;;;6.97;4.40;;;17.40;92.80;;;;;;5017006;28;20029;-74
2022/10/05 01:34:29;;;;;;;6.35;4.70;;;17.40;92.80;;;;;;5016898;28;20029;-74
2022/10/05 01:37:15;;;;;;;7.47;4.55;;;17.40;92.90;;;;;;5016773;28;20026;-74
2022/10/05 01:39:53;;;;;;;5.78;4.80;;;17.40;92.90;;;;;;5016827;28;20064;-75
2022/10/05 01:42:37;;;;;;;7.32;4.18;;;17.40;92.90;;;;;;5016720;28;20087;-74
2022/10/05 01:45:11;;;;;;;11.32;5.55;;;17.40;93.00;;;;;;5016651;28;20045;-75
2022/10/05 01:47:47;;;;;;;7.55;4.90;;;17.40;93.00;;;;;;5016783;28;20362;-75
2022/10/05 01:50:54;;;;;;;9.48;4.90;;;17.40;93.00;;;;;;5016116;28;20029;-75
2022/10/05 01:53:38;;;;;;;12.05;5.35;;;17.40;93.10;;;;;;5017362;28;20033;-73
2022/10/05 01:56:10;;;;;;;7.65;4.97;;;17.40;93.20;;;;;;5038944;28;20037;-74
2022/10/05 01:58:43;;;;;;;7.60;5.32;;;17.30;93.20;;;;;;5033762;28;20041;-75
2022/10/05 02:01:34;;;;;;;11.70;5.28;;;17.30;93.30;;;;;;5016761;28;20096;-74
2022/10/05 02:04:09;;;;;;;7.22;5.15;;;17.30;93.40;;;;;;5016125;28;20389;-74
2022/10/05 02:06:42;;;;;;;7.40;4.97;;;17.30;93.40;;;;;;5015381;28;20058;-74
2022/10/05 02:09:07;;;;;;;;;;;17.30;93.80;;;;;;5016577;28;20073;-74
2022/10/05 02:11:33;;;;;;;8.70;5.68;;;17.20;93.70;;;;;;5016219;28;19909;-74
2022/10/05 02:14:06;;;;;;;10.98;5.38;;;17.20;93.70;;;;;;5016019;28;20037;-74
2022/10/05 02:16:50;;;;;;;8.05;5.75;;;17.20;93.90;;;;;;5015941;28;20036;-74
2022/10/05 02:19:32;;;;;;;8.68;5.68;;;17.20;93.80;;;;;;5015785;28;20501;-74
2022/10/05 02:22:03;;;;;;;11.85;5.55;;;17.20;93.80;;;;;;5016056;28;20036;-74
2022/10/05 02:24:37;;;;;;;6.82;5.70;;;17.20;93.80;;;;;;5015623;28;20098;-74
2022/10/05 02:27:05;;;;;;;7.93;5.72;;;17.10;93.80;;;;;;5015744;28;20050;-74
2022/10/05 02:29:34;;;;;;;9.18;5.18;;;17.20;93.90;;;;;;5015683;28;20473;-74
2022/10/05 02:32:09;;;;;;;8.52;5.70;;;17.20;93.90;;;;;;5015342;28;20033;-74
2022/10/05 02:34:38;;;;;;;10.55;6.80;;;17.10;93.90;;;;;;5015874;28;20026;-74
2022/10/05 02:37:19;;;;;;;8.77;5.75;;;17.10;94.10;;;;;;5015604;28;20017;-74
2022/10/05 02:39:56;;;;;;;9.15;6.07;;;17.00;94.10;;;;;;5015530;28;20026;-75
2022/10/05 02:42:32;;;;;;;7.60;5.65;;;17.00;94.30;;;;;;5015495;28;20041;-74
2022/10/05 02:45:36;;;;;;;7.00;5.75;;;17.00;94.30;;;;;;5015628;28;20050;-74
2022/10/05 02:48:35;;;;;;;9.23;6.53;;;17.00;94.20;;;;;;5017355;28;20065;-74
2022/10/05 02:51:25;;;;;;;12.32;6.55;;;17.00;94.30;;;;;;5018458;28;20101;-73
2022/10/05 02:54:16;;;;;;;9.98;5.53;;;17.00;94.30;;;;;;5035365;28;20052;-74
2022/10/05 02:56:55;;;;;;;8.88;6.05;;;17.00;94.20;;;;;;5019877;28;20105;-74
2022/10/05 02:59:32;;;;;;;8.40;6.57;;;16.90;94.20;;;;;;5014917;28;20033;-74
2022/10/05 03:02:08;;;;;;;11.20;6.60;;;16.90;94.30;;;;;;5015367;28;20041;-74
2022/10/05 03:05:17;;;;;;;9.27;6.53;;;16.90;94.40;;;;;;5015325;28;20050;-74
2022/10/05 03:07:49;;;;;;;8.75;6.57;;;16.90;94.40;;;;;;5014608;28;20104;-74
2022/10/05 03:10:32;;;;;;;7.30;6.13;;;16.90;94.50;;;;;;5014939;28;20121;-74
2022/10/05 03:13:24;;;;;;;9.82;6.78;;;16.80;94.50;;;;;;5015012;28;20073;-74
2022/10/05 03:16:35;;;;;;;11.30;6.90;;;16.90;94.50;;;;;;5015130;28;20415;-74
2022/10/05 03:19:18;;;;;;;11.25;6.32;;;16.80;94.50;;;;;;5031078;28;20096;-74
2022/10/05 03:22:22;;;;;;;9.18;6.45;;;16.80;94.60;;;;;;5016315;28;20072;-74
2022/10/05 03:25:22;;;;;;;12.88;8.02;;;16.80;94.70;;;;;;5014827;28;20025;-75
2022/10/05 03:28:05;;;;;;;10.63;7.30;;;16.80;94.80;;;;;;5014485;28;20046;-75
2022/10/05 03:30:41;;;;;;;9.52;6.65;;;16.80;94.80;;;;;;5014676;28;20022;-75
2022/10/05 03:33:32;;;;;;;10.30;7.20;;;16.80;94.80;;;;;;5014688;28;20038;-74
2022/10/05 03:36:04;;;;;;;10.35;7.28;;;16.70;94.90;;;;;;5022227;28;20524;-75
2022/10/05 03:38:48;;;;;;;9.38;7.60;;;16.70;95.00;;;;;;5014322;28;20550;-75
2022/10/05 03:41:40;;;;;;;9.43;7.15;;;16.60;95.20;;;;;;5014698;28;20038;-74
2022/10/05 03:44:13;;;;;;;12.60;7.25;;;16.60;95.20;;;;;;5014364;28;20393;-74
2022/10/05 03:46:42;;;;;;;12.30;7.50;;;16.60;95.30;;;;;;5016602;28;20160;-75
2022/10/05 03:50:16;;;;;;;11.75;7.93;;;16.50;95.40;;;;;;5037957;28;20021;-74
2022/10/05 03:52:46;;;;;;;;;;;16.50;95.40;;;;;;4952084;28;20052;-74
2022/10/05 03:55:20;;;;;;;12.18;7.22;;;16.50;95.50;;;;;;5000439;28;20387;-73
2022/10/05 03:57:47;;;;;;;10.60;7.55;;;16.50;95.40;;;;;;5014427;28;20026;-73
2022/10/05 04:00:24;;;;;;;8.75;6.68;;;16.50;95.40;;;;;;5014013;28;20040;-74
2022/10/05 04:02:59;;;;;;;7.88;6.63;;;16.50;95.50;;;;;;5014324;28;20382;-74
2022/10/05 04:05:33;;;;;;;10.05;7.53;;;16.50;95.50;;;;;;5014020;28;20048;-74
2022/10/05 04:08:08;;;;;;;12.18;7.45;;;16.50;95.40;;;;;;5014005;28;20038;-73
2022/10/05 04:10:46;;;;;;;8.85;6.68;;;16.50;95.40;;;;;;5014225;28;20026;-73
2022/10/05 04:13:23;;;;;;;11.27;6.75;;;16.50;95.50;;;;;;5013809;28;20121;-73
2022/10/05 04:15:59;;;;;;;9.88;6.60;;;16.50;95.50;;;;;;5013737;28;20041;-73
2022/10/05 04:18:38;;;;;;;11.80;7.03;;;16.50;95.50;;;;;;5014085;28;20026;-74
2022/10/05 04:21:20;;;;;;;9.07;6.80;;;16.50;95.60;;;;;;5014017;28;20034;-74
2022/10/05 04:23:58;;;;;;;9.30;6.82;;;16.50;95.70;;;;;;5013515;28;20393;-73
2022/10/05 04:26:52;;;;;;;9.63;5.93;;;16.40;95.70;;;;;;5013432;28;20132;-73
2022/10/05 04:29:48;;;;;;;12.27;6.82;;;16.50;95.70;;;;;;5015094;28;20034;-73
2022/10/05 04:32:36;;;;;;;11.25;6.32;;;16.50;95.60;;;;;;5013607;28;20038;-74
2022/10/05 04:35:10;;;;;;;8.40;6.75;;;16.50;95.60;;;;;;5013716;28;20109;-74
2022/10/05 04:37:38;;;;;;;9.10;5.90;;;16.50;95.60;;;;;;5013724;28;20030;-73
2022/10/05 04:40:40;;;;;;;7.93;6.38;;;16.50;95.60;;;;;;5013482;28;20363;-73
2022/10/05 04:43:11;;;;;;;7.30;6.28;;;16.50;95.50;;;;;;5014352;28;20083;-73
2022/10/05 04:45:56;;;;;;;10.00;6.15;;;16.50;95.50;;;;;;5035980;28;20025;-73
2022/10/05 04:48:58;;;;;;;9.73;6.53;;;16.60;95.50;;;;;;5031656;28;20030;-74
2022/10/05 04:51:33;;;;;;;9.18;6.38;;;16.50;95.50;;;;;;5013275;28;20393;-75
2022/10/05 04:54:20;;;;;;;10.93;6.88;;;16.50;95.50;;;;;;5013376;28;20398;-74
2022/10/05 04:56:57;;;;;;;8.50;6.05;;;16.50;95.50;;;;;;5013437;28;20425;-75
2022/10/05 04:59:50;;;;;;;8.95;7.15;;;16.50;95.50;;;;;;5013514;28;20153;-75
2022/10/05 05:02:18;;;;;;;11.48;5.95;;;16.50;95.60;;;;;;5013285;28;20412;-74
2022/10/05 05:05:20;;;;;;;8.32;6.25;;;16.50;95.60;;;;;;5013075;28;20034;-74
2022/10/05 05:08:04;;;;;;;9.05;5.90;;;16.50;95.60;;;;;;5013305;28;20034;-74
2022/10/05 05:10:30;;;;;;;10.70;6.45;;;16.50;95.70;;;;;;5013536;28;20025;-74
2022/10/05 05:12:59;;;;;;;8.77;5.88;;;16.50;95.80;;;;;;5013003;28;20125;-74
2022/10/05 05:15:28;;;;;;;9.00;6.53;;;16.50;95.70;;;;;;5013342;28;20037;-74
2022/10/05 05:18:08;;;;;;;7.50;5.72;;;16.50;95.80;;;;;;5013007;28;20532;-74
2022/10/05 05:20:48;;;;;;;9.43;6.13;;;16.50;95.80;;;;;;5012945;28;20030;-73
2022/10/05 05:23:28;;;;;;;7.25;5.57;;;16.40;95.80;;;;;;5013423;28;20018;-75
2022/10/05 05:26:13;;;;;;;8.18;6.43;;;16.50;95.70;;;;;;5012980;28;20095;-75
2022/10/05 05:29:07;;;;;;;7.70;6.38;;;16.40;95.60;;;;;;5013209;28;20124;-75
2022/10/05 05:31:56;;;;;;;7.22;5.68;;;16.40;95.80;;;;;;5013356;28;20417;-74
2022/10/05 05:34:41;;;;;;;9.15;5.80;;;16.40;95.80;;;;;;5013351;28;20026;-74
2022/10/05 05:37:44;;;;;;;11.65;7.15;;;16.40;95.90;;;;;;5013410;28;20026;-72
2022/10/05 05:40:16;;;;;;;10.60;6.57;;;16.40;95.90;;;;;;5014213;28;20026;-72
2022/10/05 05:42:51;;;;;;;7.70;5.50;;;16.30;95.90;;;;;;5015467;28;20107;-74
2022/10/05 05:45:29;;;;;;;10.00;5.82;;;16.30;96.00;;;;;;5016342;28;20022;-73
2022/10/05 05:47:58;;;;;;;11.80;6.35;;;16.40;96.00;;;;;;5016394;28;20461;-73
2022/10/05 05:50:58;;;;;;;7.05;6.07;;;16.40;95.90;;;;;;5016076;28;20030;-73
2022/10/05 05:53:39;;;;;;;8.25;5.60;;;16.40;95.80;;;;;;5032811;28;20400;-73
2022/10/05 05:56:08;;;;;;;10.43;6.30;;;16.40;95.70;;;;;;5035850;28;20033;-74
2022/10/05 05:58:47;;;;;;;7.68;5.63;;;16.30;95.70;;;;;;5035821;28;20428;-75
2022/10/05 06:01:34;;;;;;;11.35;6.00;;;16.30;95.90;;;;;;5033583;28;20556;-75
2022/10/05 06:04:00;;;;;;;8.93;6.20;;;16.30;95.90;;;;;;5035074;28;20026;-75
2022/10/05 06:06:30;;;;;;;7.28;5.78;;;16.30;96.00;;;;;;5033875;28;20087;-74
2022/10/05 06:09:01;;;;;;;8.05;5.60;;;16.30;96.00;;;;;;5034927;28;20027;-73
2022/10/05 06:11:33;;;;;;;9.13;5.60;;;16.20;95.90;;;;;;5035592;28;20038;-74
2022/10/05 06:14:03;;;;;;;7.90;6.00;;;16.30;95.90;;;;;;5035613;28;20034;-74
2022/10/05 06:16:37;;;;;;;7.75;5.28;;;16.30;95.90;;;;;;5035091;28;20036;-75
2022/10/05 06:19:12;;;;;;;6.18;5.40;;;16.30;96.00;;;;;;5034721;28;20036;-74
2022/10/05 06:21:50;;;;;;;7.78;5.32;;;16.20;95.70;;;;;;5035010;28;20076;-74
2022/10/05 06:24:20;;;;;;;7.63;5.07;;;16.20;95.70;;;;;;5035312;28;20049;-76
2022/10/05 06:27:22;;;;;;;8.63;5.85;;;16.20;95.60;;;;;;5034117;28;20108;-74
2022/10/05 06:30:12;;;;;;;6.05;4.28;;;16.20;95.80;;;;;;5039913;28;20109;-74
2022/10/05 06:32:59;;;;;;;6.70;4.43;;;16.20;95.80;;;;;;5035134;28;20489;-74
2022/10/05 06:35:46;;;;;;;5.90;4.43;;;16.20;95.70;;;;;;5035319;28;20041;-73
2022/10/05 06:38:46;;;;;;;7.38;5.00;;;16.20;95.60;;;;;;5040449;28;20205;-76
2022/10/05 06:41:17;;;;;;;9.27;4.40;;;16.20;95.60;;;;;;5035225;28;20436;-76
2022/10/05 06:43:55;;;;;;;6.82;4.70;;;16.30;95.70;;;;;;5035273;28;20105;-76
2022/10/05 06:46:28;;;;;;;5.65;4.28;;;16.30;95.60;;;;;;5015224;28;20033;-76
2022/10/05 06:48:59;;;;;;;8.73;4.18;;;16.30;95.60;;;;;;5015313;28;20458;-77
2022/10/05 06:51:41;;;;;;;4.85;3.97;;;16.30;95.60;;;;;;5014956;28;20453;-76
2022/10/05 06:54:26;;;;;;;7.33;4.50;;;16.30;95.50;;;;;;5015064;28;20107;-75
2022/10/05 06:57:06;;;;;;;6.68;3.97;;;16.30;95.40;;;;;;5016194;28;20335;-73
2022/10/05 06:59:45;;;;;;;4.00;3.60;;;16.20;95.50;;;;;;5031854;28;20108;-73
2022/10/05 07:02:39;;;;;;;7.40;4.10;;;16.30;95.50;;;;;;5031223;28;20531;-74
2022/10/05 07:05:24;;;;;;;4.45;3.35;;;16.30;95.60;;;;;;5034821;28;20151;-73
2022/10/05 07:08:00;;;;;;;4.90;3.53;;;16.30;95.60;;;;;;5033364;28;20029;-72
2022/10/05 07:10:35;;;;;;;6.35;3.83;;;16.30;95.70;;;;;;5041525;28;20024;-73
2022/10/05 07:13:21;;;;;;;6.72;3.80;;;16.30;95.60;;;;;;5046680;28;20037;-73
2022/10/05 07:15:57;;;;;;;6.95;4.40;;;16.40;95.50;;;;;;5034609;28;20028;-76
2022/10/05 07:18:38;;;;;;;5.30;4.30;;;16.40;95.60;;;;;;5034543;28;20116;-76
2022/10/05 07:21:28;;;;;;;6.95;4.20;;;16.40;95.60;;;;;;5034226;28;20488;-75
2022/10/05 07:24:22;;;;;;;6.72;3.63;;;16.40;95.60;;;;;;5034270;28;20022;-76
2022/10/05 07:27:09;;;;;;;7.38;4.40;;;16.40;95.60;;;;;;5034216;28;20081;-77
2022/10/05 07:30:06;;;;;;;6.85;3.88;;;16.40;95.50;;;;;;5036044;28;20052;-74
2022/10/05 07:33:08;;;;;;;6.93;3.97;;;16.40;95.50;;;;;;5045117;28;20040;-73
2022/10/05 07:38:53;;;;;;;8.18;4.78;;;16.50;95.50;;;;;;5034072;28;20032;-75
2022/10/05 07:41:50;;;;;;;6.38;4.63;;;16.50;95.30;;;;;;5014379;28;20037;-74
2022/10/05 07:44:41;;;;;;;7.30;4.13;;;16.50;95.40;;;;;;5011102;28;20117;-75
2022/10/05 07:47:24;;;;;;;5.82;4.30;;;16.50;95.50;;;;;;5013789;28;20022;-74
2022/10/05 07:50:14;;;;;;;4.68;4.00;;;16.50;95.40;;;;;;5013857;28;20032;-77
2022/10/05 07:52:47;;;;;;;8.20;4.50;;;16.50;95.40;;;;;;5029221;28;20047;-74
2022/10/05 07:55:24;;;;;;;6.68;3.58;;;16.50;95.40;;;;;;5033946;28;20104;-75
2022/10/05 07:58:15;;;;;;;7.43;4.05;;;16.50;95.50;;;;;;5034063;28;20105;-78
2022/10/05 08:00:59;;;;;;;4.03;3.40;;;16.50;95.60;;;;;;5038532;28;20036;-79
2022/10/05 08:03:46;;;;;;;6.57;3.80;;;16.50;95.60;;;;;;5043495;28;20051;-79
2022/10/05 08:06:35;;;;;;;6.38;4.10;;;16.50;95.50;;;;;;5037191;28;20078;-79
2022/10/05 08:09:30;;;;;;;5.45;3.60;;;16.60;95.40;;;;;;5046349;28;20116;-79
2022/10/05 08:12:17;;;;;;;4.18;3.20;;;16.50;95.30;;;;;;5038848;28;20029;-78
2022/10/05 08:15:11;;;;;;;8.88;3.25;;;16.60;95.30;;;;;;5035888;28;20065;-79
2022/10/05 08:17:51;;;;;;;5.22;3.40;;;16.60;95.10;;;;;;5033174;28;20034;-77
2022/10/05 08:20:35;;;;;;;5.80;2.90;;;16.60;95.00;;;;;;5033649;28;20037;-77
2022/10/05 08:23:37;;;;;;;5.15;2.85;;;16.60;95.00;;;;;;5035992;28;20041;-77
2022/10/05 08:26:34;;;;;;;4.63;2.53;;;16.60;95.10;;;;;;5034861;28;20083;-78
2022/10/05 08:29:12;;;;;;;4.15;2.20;;;16.60;94.80;;;;;;5052693;28;20036;-74
2022/10/05 08:31:40;;;;;;;3.13;2.22;;;16.60;94.80;;;;;;5042255;28;20017;-79
2022/10/05 08:34:18;;;;;;;3.63;2.40;;;16.60;94.60;;;;;;5033400;28;20481;-78
2022/10/05 08:37:06;;;;;;;5.43;2.10;;;16.50;94.60;;;;;;5041889;28;20113;-79
2022/10/05 08:39:39;;;;;;;7.60;1.90;;;16.60;94.90;;;;;;5042087;28;20029;-78
2022/10/05 08:42:08;;;;;;;;;;;16.60;94.90;;;;;;5050059;28;20071;-78
2022/10/05 08:45:18;;;;;;;4.10;2.22;;;16.60;94.90;;;;;;5040103;28;20008;-79
2022/10/05 08:48:32;;;;;;;4.80;1.88;;;16.60;94.70;;;;;;5034750;28;20132;-76
2022/10/05 08:51:17;;;;;;;4.88;1.90;;;16.70;94.90;;;;;;5012197;28;20096;-74
2022/10/05 08:54:04;;;;;;;4.22;2.03;;;16.70;94.80;;;;;;5043631;28;20045;-75
2022/10/05 08:56:46;;;;;;;4.10;2.00;;;16.70;94.80;;;;;;5032552;28;20018;-77
2022/10/05 08:59:49;;;;;;;4.03;2.00;;;16.80;94.90;;;;;;5035278;28;20026;-78
2022/10/05 09:02:30;;;;;;;5.15;2.15;;;16.80;94.80;;;;;;5033399;28;20021;-77
2022/10/05 09:05:32;;;;;;;5.43;2.13;;;16.80;94.90;;;;;;5038833;28;20029;-81
2022/10/05 09:08:19;;;;;;;4.32;2.10;;;16.90;94.80;;;;;;5040489;28;20021;-76
2022/10/05 09:10:54;;;;;;;4.25;2.30;;;16.90;94.70;;;;;;5037550;28;20082;-77
2022/10/05 09:14:03;;;;;;;7.68;2.20;;;16.90;94.70;;;;;;5048021;28;20385;-76
2022/10/05 09:16:47;;;;;;;5.47;2.72;;;17.00;94.80;;;;;;5039617;28;20117;-77
2022/10/05 09:19:33;;;;;;;4.40;2.17;;;17.10;95.00;;;;;;5041693;28;20131;-78
2022/10/05 09:22:18;;;;;;;3.75;2.45;;;17.10;94.90;;;;;;5047757;28;20037;-79
2022/10/05 09:25:02;;;;;;;3.22;2.03;;;17.10;94.90;;;;;;5056241;28;20017;-76
2022/10/05 09:27:31;;;;;;;4.85;2.05;;;17.20;94.90;;;;;;5047663;28;20532;-78
2022/10/05 09:30:19;;;;;;;4.90;2.05;;;17.20;94.70;;;;;;5044902;28;20465;-78
2022/10/05 09:33:22;;;;;;;2.25;1.95;;;17.20;94.80;;;;;;5052875;28;20496;-76
2022/10/05 09:36:15;;;;;;;5.30;2.35;;;17.30;94.80;;;;;;5036392;28;20126;-77
2022/10/05 09:39:04;;;;;;;3.65;2.15;;;17.40;94.70;;;;;;5036174;28;20481;-72
2022/10/05 09:41:45;;;;;;;4.03;2.40;;;17.40;94.80;;;;;;5033067;28;20489;-73
2022/10/05 09:45:04;;;;;;;4.68;2.60;;;17.50;94.70;;;;;;5036141;28;20389;-73
2022/10/05 09:47:52;;;;;;;4.05;2.30;;;17.50;94.50;;;;;;5014227;28;20026;-73
2022/10/05 09:50:40;;;;;;;4.68;2.85;;;17.50;94.40;;;;;;5013866;28;20030;-73
2022/10/05 09:53:43;;;;;;;4.50;2.72;;;17.50;94.40;;;;;;5015731;28;20493;-72
2022/10/05 09:56:54;;;;;;;2.70;2.05;;;17.60;94.30;;;;;;5016326;28;20470;-73
2022/10/05 09:59:56;;;;;;;7.07;2.10;;;17.60;94.40;;;;;;5023669;28;20033;-75
2022/10/05 10:02:29;;;;;;;4.83;2.00;;;17.70;94.30;;;;;;5025551;28;20430;-75
2022/10/05 10:05:04;;;;;;;5.07;2.30;;;17.70;94.40;;;;;;5039863;28;20064;-77
2022/10/05 10:07:51;;;;;;;5.43;2.42;;;17.70;94.10;;;;;;5033250;28;20022;-77
2022/10/05 10:10:16;;;;;;;6.68;2.10;;;17.80;94.20;;;;;;5047009;28;20029;-76
2022/10/05 10:13:09;;;;;;;4.20;2.25;;;17.80;94.00;;;;;;5035305;28;20037;-74
2022/10/05 10:15:56;;;;;;;3.38;1.90;;;17.80;94.10;;;;;;5050222;28;20046;-74
2022/10/05 10:18:44;;;;;;;3.25;2.08;;;17.90;94.10;;;;;;5044249;28;20496;-75
2022/10/05 10:21:19;;;;;;;5.05;2.10;;;17.90;93.70;;;;;;5047445;28;20051;-73
2022/10/05 10:24:02;;;;;;;3.55;1.67;;;17.90;94.10;;;;;;5049301;28;20021;-76
2022/10/05 10:26:46;;;;;;;3.17;2.13;;;18.00;93.90;;;;;;5040950;28;20044;-76
2022/10/05 10:29:42;;;;;;;2.50;1.90;;;18.10;93.60;;;;;;5046898;28;20102;-78
2022/10/05 10:32:37;;;;;;;2.97;1.75;;;18.10;93.70;;;;;;5033821;28;20491;-77
2022/10/05 10:35:05;;;;;;;3.47;1.60;;;18.20;93.50;;;;;;5049457;28;20501;-77
2022/10/05 10:37:49;;;;;;;8.00;1.88;;;18.30;93.80;;;;;;5042252;28;20021;-78
2022/10/05 10:40:42;;;;;;;3.25;1.40;;;18.40;93.40;;;;;;5047095;28;20388;-78
2022/10/05 10:43:25;;;;;;;5.38;1.73;;;18.50;93.10;;;;;;5046235;28;20043;-77
2022/10/05 10:45:56;;;;;;;4.93;1.80;;;18.50;93.00;;;;;;5047652;28;20037;-77
2022/10/05 10:48:52;;;;;;;6.55;1.60;;;18.50;92.90;;;;;;5050228;28;20107;-78
2022/10/05 10:52:02;;;;;;;4.20;1.80;;;18.50;92.80;;;;;;5045937;28;20029;-77
2022/10/05 10:54:53;;;;;;;3.80;1.98;;;18.50;92.80;;;;;;5032561;28;20042;-76
2022/10/05 10:57:19;;;;;;;2.55;1.38;;;18.40;92.80;;;;;;5046805;28;20086;-77
2022/10/05 11:00:04;;;;;;;5.78;1.70;;;18.40;92.80;;;;;;5035176;28;20100;-77
2022/10/05 11:02:59;;;;;;;2.95;1.17;;;18.40;93.10;;;;;;5037190;28;20075;-77
2022/10/05 11:05:42;;;;;;;2.70;1.60;;;18.40;93.10;;;;;;5041977;28;20332;-77
2022/10/05 11:08:24;;;;;;;4.72;1.70;;;18.40;93.30;;;;;;5042006;28;20087;-76
2022/10/05 11:11:21;;;;;;;3.10;1.50;;;18.30;93.00;;;;;;5051467;28;20025;-77
2022/10/05 11:14:01;;;;;;;4.45;1.17;;;18.40;93.10;;;;;;5051497;28;20045;-77
2022/10/05 11:16:45;;;;;;;3.15;1.35;;;18.40;93.00;;;;;;5038723;28;20381;-75
2022/10/05 11:19:20;;;;;;;4.65;1.45;;;18.40;92.90;;;;;;5048293;28;20040;-77
2022/10/05 11:22:21;;;;;;;2.70;0.90;;;18.40;92.90;;;;;;5036257;28;20025;-77
2022/10/05 11:25:13;;;;;;;4.35;1.45;;;18.40;92.90;;;;;;5036241;28;20029;-77
2022/10/05 11:28:17;;;;;;;4.22;1.40;;;18.40;92.50;;;;;;5044382;28;20563;-77
2022/10/05 11:31:32;;;;;;;5.70;2.05;;;18.40;92.80;;;;;;5041256;28;20052;-77
2022/10/05 11:34:38;;;;;;;3.85;1.10;;;18.30;92.80;;;;;;5042136;28;20041;-78
2022/10/05 11:37:21;;;;;;;3.30;1.40;;;18.30;92.70;;;;;;5034375;28;20013;-76
2022/10/05 11:40:19;;;;;;;3.25;1.17;;;18.40;92.90;;;;;;5033367;28;20077;-75
2022/10/05 11:43:21;;;;;;;2.47;1.20;;;18.40;93.00;;;;;;5034134;28;20032;-77
2022/10/05 11:46:13;;;;;;;6.30;1.38;;;18.40;92.80;;;;;;5034227;28;20108;-77
2022/10/05 11:48:45;;;;;;;4.20;1.27;;;18.40;92.80;;;;;;5033994;28;20102;-78
2022/10/05 11:51:36;;;;;;;4.32;1.33;;;18.50;92.90;;;;;;5033867;28;20021;-78
2022/10/05 11:54:25;;;;;;;3.45;1.27;;;18.50;92.80;;;;;;5034303;28;20044;-79
2022/10/05 11:57:02;;;;;;;3.70;1.20;;;18.50;92.80;;;;;;5034244;28;20080;-74
2022/10/05 11:59:38;;;;;;;2.55;1.30;;;18.60;93.10;;;;;;5035747;28;20025;-77
2022/10/05 12:02:30;;;;;;;3.05;1.27;;;18.60;92.90;;;;;;5043419;28;20040;-76
2022/10/05 12:05:11;;;;;;;3.95;1.10;;;18.60;92.90;;;;;;5032994;28;20104;-76
2022/10/05 12:08:09;;;;;;;3.53;1.17;;;18.70;92.90;;;;;;5013640;28;20470;-77
2022/10/05 12:11:07;;;;;;;5.07;1.10;;;18.60;92.80;;;;;;5014255;28;20101;-76
2022/10/05 12:13:33;;;;;;;4.93;1.50;;;18.60;92.50;;;;;;5018595;28;20053;-76
2022/10/05 12:16:21;;;;;;;2.08;1.02;;;18.60;92.60;;;;;;5015822;28;20026;-77
2022/10/05 12:19:02;;;;;;;2.22;1.35;;;18.70;92.70;;;;;;5025762;28;20029;-77
2022/10/05 12:21:50;;;;;;;2.78;1.20;;;18.70;92.90;;;;;;5033333;28;20461;-78
2022/10/05 12:24:34;;;;;;;3.53;1.38;;;18.80;92.70;;;;;;5033709;28;20523;-78
2022/10/05 12:27:02;;;;;;;2.13;0.88;;;18.90;92.70;;;;;;5033206;28;20467;-78
2022/10/05 12:29:44;;;;;;;2.75;1.00;;;18.90;92.80;;;;;;5033265;28;20022;-77
2022/10/05 12:32:19;;;;;;;2.00;0.93;;;18.90;92.60;;;;;;5033056;28;20079;-78
2022/10/05 12:35:11;;;;;;;2.28;0.75;;;19.00;92.50;;;;;;5033285;28;20033;-77
2022/10/05 12:37:53;;;;;;;2.03;1.10;;;19.10;92.50;;;;;;5033497;28;20030;-77
2022/10/05 12:40:29;;;;;;;3.93;1.23;;;19.20;92.60;;;;;;5033443;28;20041;-76
2022/10/05 12:43:03;;;;;;;3.83;1.00;;;19.20;92.50;;;;;;5032850;28;20021;-77
2022/10/05 12:45:31;;;;;;;3.22;0.70;;;19.40;92.40;;;;;;5033229;28;20037;-77
2022/10/05 12:48:18;;;;;;;2.67;0.90;;;19.50;92.00;;;;;;5033136;28;20067;-77
2022/10/05 12:50:50;;;;;;;5.15;0.85;;;19.50;92.10;;;;;;5033996;28;20029;-76
2022/10/05 12:53:49;;;;;;;3.35;1.20;;;19.60;92.00;;;;;;5037079;28;20034;-76
2022/10/05 12:56:39;;;;;;;4.78;0.80;;;19.60;91.70;;;;;;5037179;28;20030;-76
2022/10/05 12:59:08;;;;;;;2.60;0.90;;;19.70;91.70;;;;;;5036911;28;20469;-77
2022/10/05 13:01:54;;;;;;;4.30;1.00;;;19.80;91.70;;;;;;5037324;28;20026;-77
2022/10/05 13:04:35;;;;;;;4.97;0.95;;;19.80;91.20;;;;;;5038054;28;20389;-74
2022/10/05 13:07:03;;;;;;;5.20;0.90;;;19.90;91.10;;;;;;5036923;28;20021;-75
2022/10/05 13:09:46;;;;;;;2.67;0.80;;;19.90;91.20;;;;;;5045107;28;20029;-73
2022/10/05 13:12:25;;;;;;;3.25;0.88;;;19.90;91.40;;;;;;5047025;28;20419;-77
2022/10/05 13:15:02;;;;;;;3.75;1.10;;;19.90;91.50;;;;;;5036947;28;20040;-77
2022/10/05 13:18:04;;;;;;;2.70;0.80;;;19.90;91.30;;;;;;5037034;28;20022;-77
2022/10/05 13:20:42;;;;;;;3.28;1.00;;;19.90;91.30;;;;;;5036124;28;20030;-78
2022/10/05 13:23:21;;;;;;;3.83;1.00;;;19.90;91.40;;;;;;5046472;28;20032;-79
2022/10/05 13:26:05;;;;;;;4.95;1.02;;;19.90;91.50;;;;;;5049271;28;20393;-78
2022/10/05 13:28:40;;;;;;;1.27;0.60;;;19.90;91.40;;;;;;5029095;28;20034;-78
2022/10/05 13:31:17;;;;;;;5.03;0.73;;;20.00;91.30;;;;;;5016336;28;20026;-77
2022/10/05 13:33:51;;;;;;;4.82;0.70;;;20.10;91.10;;;;;;5033768;28;20420;-79
2022/10/05 13:36:20;;;;;;;1.73;0.52;;;20.20;91.20;;;;;;5056318;28;20068;-76
2022/10/05 13:39:12;;;;;;;2.55;0.73;;;20.20;91.30;;;;;;5039613;28;20029;-80
2022/10/05 13:42:03;;;;;;;6.72;1.00;;;20.20;91.20;;;;;;5047867;28;20465;-76
2022/10/05 13:44:49;;;;;;;1.90;1.10;;;20.20;90.90;;;;;;5036475;28;20384;-77
2022/10/05 13:47:34;;;;;;;1.88;0.70;;;20.20;90.90;;;;;;5034853;28;20021;-78
2022/10/05 13:50:20;;;;;;;2.00;0.70;;;20.20;91.10;;;;;;5036221;28;20037;-78
2022/10/05 13:53:12;;;;;;;3.50;0.70;;;20.20;91.20;;;;;;5036810;28;20039;-76
2022/10/05 13:55:43;;;;;;;3.10;0.75;;;20.20;91.20;;;;;;5036585;28;20036;-78
2022/10/05 13:58:21;;;;;;;3.25;0.60;;;20.30;91.10;;;;;;5043897;28;20029;-78
2022/10/05 14:00:57;;;;;;;5.55;0.82;;;20.40;90.90;;;;;;5040432;28;20026;-76
2022/10/05 14:03:26;;;;;;;2.85;0.68;;;20.50;90.80;;;;;;5046855;28;20033;-78
2022/10/05 14:05:57;;;;;;;5.03;0.63;;;20.60;90.70;;;;;;5063765;28;20111;-77
2022/10/05 14:08:31;;;;;;;3.65;0.70;;;20.60;90.40;;;;;;5055395;28;20021;-79
2022/10/05 14:10:57;;;;;;;2.42;0.52;;;20.60;90.50;;;;;;5043912;28;20036;-79